Latest Coastal Weather Observations for Cocos Island

IDW60701

Issued at 12:23 am WST Monday 23 January 2017 (issued every 10 minutes, with the page automatically refreshed every 10 minutes)

About coastal observations | Map of coastal stations | Coastal observations for WA | Marine services | Other Formats
Station Details ID: 200284 Name: COCOS ISLAND AIRPORT Lat: -12.19 Lon: 96.83 Height: 3.0 m
Data from the previous 72 hours. | See also: Recent months at Cocos Island
Date/Time
WST
Temp
°C
Wind Pressure Rain since
9am
mm
Weather Cloud Vis
km
Sea
Height
m
Swell
Dir  Spd
kts
Gust
kts
hPa Trend Height
m
Period
s
Dir
23/12:00am 26.5 SSE 9 11 1013.0 - 0.0 - Partly cloudy 10 - - - -
 
Date/Time
WST
Temp
°C
Wind Pressure Rain since
9am
mm
Weather Cloud Vis
km
Sea
Height
m
Swell
Dir  Spd
kts
Gust
kts
hPa Trend Height
m
Period
s
Dir
22/11:30pm 26.3 SE 8 9 1013.0 - 0.0 - - 10 - - - -
22/11:00pm 25.9 SSE 7 9 1012.6 - 0.0 - - 10 - - - -
22/10:30pm 25.7 SSE 8 10 1012.5 - 0.0 - - 10 - - - -
22/10:00pm 25.5 SSE 9 13 1012.3 - 0.0 - - 10 - - - -
22/09:30pm 25.5 S 13 16 1012.3 - 0.0 - - 10 - - - -
22/09:00pm 25.7 S 12 15 1012.2 - 0.0 - Partly cloudy 10 - - - -
22/08:30pm 26.3 SE 8 11 1011.7 - 0.0 - Partly cloudy 10 - - - -
22/08:00pm 26.2 SE 11 15 1011.4 - 0.0 - Mostly clear 10 - - - -
22/07:44pm 26.6 SE 12 15 1011.4 - 0.0 - Partly cloudy 10 - - - -
22/07:30pm 26.9 ESE 11 13 1011.2 - 0.0 - Partly cloudy 5 - - - -
22/07:26pm 27.1 SSE 10 13 1011.1 - 0.0 - Partly cloudy 5 - - - -
22/07:00pm 27.2 SSE 8 11 1010.9 - 0.0 - Partly cloudy 10 - - - -
22/06:30pm 27.2 SSE 9 12 1010.8 - 0.0 - Partly cloudy 10 - - - -
22/06:19pm 27.1 SSE 8 10 1010.8 - 0.0 - Partly cloudy 10 - - - -
22/06:01pm 27.1 SSE 7 11 1010.8 - 0.0 - Partly cloudy 5 - - - -
22/06:00pm 27.2 SSE 8 11 1010.8 - 0.0 - Partly cloudy 10 - - - -
22/05:30pm 27.1 S 10 12 1010.8 - 0.0 - Partly cloudy 10 - - - -
22/05:00pm 26.6 S 12 15 1010.7 - 0.0 - Cloudy 10 - - - -
22/04:37pm 26.8 S 14 17 1010.8 - 0.0 - Partly cloudy 10 - - - -
22/04:30pm 26.7 S 14 18 1010.9 - 0.0 - Partly cloudy 10 - - - -
22/04:24pm 27.1 S 13 17 1011.0 - 0.0 - Partly cloudy 10 - - - -
22/04:11pm 26.9 S 14 18 1011.0 - 0.0 - Partly cloudy 10 - - - -
22/04:00pm 26.5 S 14 18 1011.1 - 0.0 - Partly cloudy 8 - - - -
22/03:48pm 28.3 S 11 14 1011.1 - 0.0 - Partly cloudy 10 - - - -
22/03:30pm 28.0 S 12 14 1011.3 - 0.0 - Partly cloudy 10 - - - -
22/03:00pm 27.0 S 9 15 1011.6 - 0.0 - Partly cloudy 10 - - - -
22/02:30pm 28.3 S 12 14 1011.9 - 0.0 - Partly cloudy 10 - - - -
22/02:00pm 29.0 S 13 16 1011.8 - 0.0 - Mostly cloudy 10 - - - -
22/01:30pm 28.3 S 11 15 1012.0 - 0.0 - Partly cloudy 10 - - - -
22/01:00pm 28.2 S 12 15 1012.1 - 0.0 - Partly cloudy 10 - - - -
22/12:30pm 28.3 S 14 17 1012.3 - 0.0 - Partly cloudy 10 - - - -
22/12:02pm 28.7 SSE 14 17 1012.4 - 0.0 - Partly cloudy 10 - - - -
22/12:00pm 28.4 SSE 14 17 1012.5 - 0.0 - Partly cloudy 10 - - - -
22/11:35am 27.3 SE 12 17 1012.7 - 0.0 - Partly cloudy 10 - - - -
22/11:30am 27.7 SSE 13 18 1012.8 - 0.0 - Partly cloudy 10 - - - -
22/11:00am 27.2 SSE 13 19 1013.0 - 2.2 - Cloudy 10 - - - -
22/10:30am 26.4 SSE 13 18 1013.2 - 2.2 - Partly cloudy 10 - - - -
22/10:09am 26.1 SSE 14 18 1013.0 - 2.2 - Partly cloudy 10 - - - -
22/10:00am 26.2 SSE 14 20 1012.9 - 2.2 - Partly cloudy 10 - - - -
22/09:55am 26.1 SSE 14 18 1012.9 - 2.2 - Partly cloudy 6 - - - -
22/09:50am 26.4 SSE 15 18 1012.8 - 2.2 - Partly cloudy 6 - - - -
22/09:30am 26.1 S 14 17 1012.8 - 2.2 - Partly cloudy 10 - - - -
22/09:00am 25.8 S 12 16 1012.5 - 2.2 - Partly cloudy 10 - - - -
22/08:36am 24.8 S 13 16 1012.2 - 2.2 - Partly cloudy 10 - - - -
22/08:30am 24.8 S 14 18 1012.2 - 2.2 - Partly cloudy 9 - - - -
22/08:16am 24.8 S 15 19 1011.9 - 2.0 - Partly cloudy 6 - - - -
22/08:00am 24.9 S 15 18 1011.4 - 1.8 - Cloudy 10 - - - -
22/07:48am 25.0 S 15 19 1011.4 - 1.8 - Partly cloudy 10 - - - -
22/07:30am 25.0 S 14 17 1011.2 - 1.8 - Partly cloudy 10 - - - -
22/07:02am 25.1 S 15 20 1010.8 - 1.8 - Partly cloudy 10 - - - -
22/07:00am 25.1 S 15 20 1010.8 - 1.8 - Partly cloudy 10 - - - -
22/06:39am 25.3 S 16 19 1010.4 - 1.8 - Partly cloudy 10 - - - -
22/06:38am 25.2 S 16 19 1010.4 - 1.8 - Partly cloudy 10 - - - -
22/06:30am 25.2 S 16 19 1010.2 - 1.8 - Partly cloudy 7 - - - -
22/06:00am 25.0 S 15 18 1010.1 - 0.8 - Partly cloudy 5 - - - -
22/05:58am 25.1 S 15 18 1010.1 - 0.6 - Partly cloudy 6 - - - -
22/05:50am 25.6 SSE 9 12 1010.0 - 0.2 - Partly cloudy 10 - - - -
22/05:46am 25.5 SSE 9 11 1010.0 - 0.2 - Partly cloudy 10 - - - -
22/05:30am 26.0 S 11 14 1009.9 - 0.2 - Partly cloudy 10 - - - -
22/05:12am 26.1 S 11 13 1010.0 - 0.2 - Partly cloudy 10 - - - -
22/05:00am 26.0 S 10 13 1010.1 - 0.2 - Cloudy 10 - - - -
22/04:37am 26.0 S 11 15 1010.5 - 0.2 - Partly cloudy 10 - - - -
22/04:30am 25.8 S 11 14 1010.5 - 0.2 - Partly cloudy 10 - - - -
22/04:00am 26.0 S 13 17 1010.7 - 0.0 - Partly cloudy 10 - - - -
22/03:30am 26.3 SSW 11 14 1010.8 - 0.0 - Partly cloudy 10 - - - -
22/03:00am 26.5 S 10 12 1011.2 - 0.0 - Cloudy 10 - - - -
22/02:30am 26.4 S 10 13 1011.5 - 0.0 - Partly cloudy 10 - - - -
22/02:00am 26.3 S 11 14 1011.5 - 0.0 - Cloudy 10 - - - -
22/01:44am 26.5 S 12 15 1011.8 - 0.0 - Partly cloudy 10 - - - -
22/01:30am 26.5 S 11 15 1011.8 - 0.0 - Partly cloudy 5 - - - -
22/01:25am 26.4 S 11 14 1011.9 - 0.0 - Partly cloudy 5 - - - -
22/01:00am 26.6 SSE 10 14 1012.2 - 0.0 - Partly cloudy 10 - - - -
22/12:30am 26.4 S 13 15 1012.3 - 0.0 - Partly cloudy 10 - - - -
22/12:00am 26.2 S 13 15 1012.3 - 0.0 - Partly cloudy 10 - - - -
 
Date/Time
WST
Temp
°C
Wind Pressure Rain since
9am
mm
Weather Cloud Vis
km
Sea
Height
m
Swell
Dir  Spd
kts
Gust
kts
hPa Trend Height
m
Period
s
Dir
21/11:30pm 25.8 S 13 17 1012.2 - 0.0 - Partly cloudy 10 - - - -
21/11:00pm 25.9 SSE 12 16 1011.9 - 0.0 - Cloudy 10 - - - -
21/10:46pm 25.6 SSE 14 17 1011.8 - 0.0 - Partly cloudy 10 - - - -
21/10:33pm 25.8 S 13 16 1011.6 - 0.0 - Partly cloudy 10 - - - -
21/10:30pm 25.8 S 13 15 1011.6 - 0.0 - Partly cloudy 10 - - - -
21/10:24pm 25.7 S 13 15 1011.5 - 0.0 - Partly cloudy 10 - - - -
21/10:00pm 26.0 S 14 18 1011.4 - 0.0 - Partly cloudy 10 - - - -
21/09:37pm 26.0 S 16 19 1011.1 - 0.0 - Partly cloudy 10 - - - -
21/09:30pm 26.1 S 14 18 1011.0 - 0.0 - Partly cloudy 10 - - - -
21/09:00pm 26.0 S 13 17 1010.7 - 0.0 - Partly cloudy 10 - - - -
21/08:30pm 25.8 S 14 17 1010.3 - 0.0 - Partly cloudy 10 - - - -
21/08:00pm 26.0 S 14 18 1009.7 - 0.0 - Cloudy 8 - - - -
21/07:40pm 26.1 S 15 19 1009.5 - 0.0 - Partly cloudy 7 - - - -
21/07:30pm 26.5 SSE 15 20 1009.4 - 0.0 - Partly cloudy 10 - - - -
21/07:27pm 26.4 SSE 15 19 1009.3 - 0.0 - Partly cloudy 10 - - - -
21/07:00pm 27.2 S 16 21 1008.8 - 0.0 - Partly cloudy 10 - - - -
21/06:30pm 26.9 S 17 21 1008.6 - 0.0 - Partly cloudy 10 - - - -
21/06:15pm 26.9 S 16 20 1008.4 - 0.0 - Partly cloudy 10 - - - -
21/06:00pm 26.9 S 17 21 1008.3 - 0.0 - Partly cloudy 10 - - - -
21/05:45pm 27.0 S 17 21 1008.2 - 0.0 - Partly cloudy 10 - - - -
21/05:30pm 26.9 S 17 20 1008.3 - 0.0 - Partly cloudy 5 - - - -
21/05:26pm 26.7 S 18 23 1008.3 - 0.0 - Partly cloudy 4 - - - -
21/05:10pm 26.4 S 17 19 1008.4 - 0.0 - Partly cloudy 8 - - - -
21/05:00pm 26.5 S 15 18 1008.4 - 0.0 - Cloudy 6 - - - -
21/04:51pm 26.7 S 16 21 1008.6 - 0.0 - Partly cloudy 6 - - - -
21/04:45pm 27.0 S 16 21 1008.6 - 0.0 - Partly cloudy 10 - - - -
21/04:30pm 26.6 S 16 20 1008.6 - 0.0 - Partly cloudy 4 - - - -
21/04:20pm 27.0 S 16 19 1008.7 - 0.0 - Partly cloudy 6 - - - -
21/04:16pm 27.2 S 16 19 1008.7 - 0.0 - Partly cloudy 10 - - - -
21/04:00pm 26.5 S 17 21 1008.9 - 0.0 - Partly cloudy 3 - - - -
21/03:44pm 27.3 S 16 19 1009.1 - 0.0 - Partly cloudy 5 - - - -
21/03:30pm 28.9 S 17 21 1009.1 - 0.0 - Partly cloudy 10 - - - -
21/03:03pm 28.9 S 16 21 1009.2 - 0.0 - Partly cloudy 10 - - - -
21/03:00pm 28.5 S 15 19 1009.2 - 0.0 - Partly cloudy 10 - - - -
21/02:55pm 28.5 S 16 20 1009.2 - 0.0 - Partly cloudy 10 - - - -
21/02:36pm 29.1 S 17 22 1009.4 - 0.0 - Partly cloudy 10 - - - -
21/02:30pm 29.4 S 17 22 1009.4 - 0.0 - Partly cloudy 10 - - - -
21/02:00pm 29.7 S 17 21 1009.5 - 0.0 - Cloudy 10 - - - -
21/01:39pm 27.7 S 16 20 1009.6 - 0.0 - Partly cloudy 8 - - - -
21/01:30pm 29.3 S 17 20 1009.7 - 0.0 - Partly cloudy 10 - - - -
21/01:00pm 28.0 S 16 19 1009.9 - 0.0 - Partly cloudy 10 - - - -
21/12:41pm 28.3 S 16 20 1010.1 - 0.0 - Partly cloudy 10 - - - -
21/12:30pm 28.1 S 19 23 1010.1 - 0.0 - Partly cloudy 10 - - - -
21/12:09pm 28.8 S 17 22 1010.1 - 0.0 - Partly cloudy 10 - - - -
21/12:00pm 28.6 S 17 20 1010.1 - 0.0 - Partly cloudy 10 - - - -
21/11:34am 28.5 S 18 21 1010.4 - 0.0 - Partly cloudy 10 - - - -
21/11:30am 28.2 S 17 21 1010.3 - 0.0 - Partly cloudy 10 - - - -
21/11:00am 28.7 S 18 22 1010.2 - 4.4 - Cloudy 10 - - - -
21/10:43am 27.9 S 16 20 1010.4 - 4.4 - Partly cloudy 10 - - - -
21/10:30am 27.6 S 16 20 1010.5 - 4.4 - Partly cloudy 10 - - - -
21/10:00am 27.7 S 15 18 1010.5 - 4.4 - Partly cloudy 10 - - - -
21/09:30am 27.0 S 14 17 1010.4 - 4.4 - Partly cloudy 10 - - - -
21/09:27am 27.1 S 14 18 1010.4 - 4.4 - Partly cloudy 10 - - - -
21/09:09am 26.5 SSW 14 17 1010.4 - 4.4 - Partly cloudy 0.8 - - - -
21/09:04am 26.3 SSW 14 18 1010.3 - 4.4 - Partly cloudy 1 - - - -
21/09:00am 26.3 SSW 14 18 1010.3 - 4.4 - Partly cloudy 9 - - - -
21/08:30am 26.0 S 16 19 1010.3 - 4.4 - Partly cloudy 10 - - - -
21/08:00am 25.9 S 14 19 1009.7 - 4.4 - Cloudy 10 - - - -
21/07:30am 25.6 S 14 17 1009.5 - 4.4 - Partly cloudy 10 - - - -
21/07:15am 25.5 S 15 19 1009.3 - 4.4 - Partly cloudy 10 - - - -
21/07:01am 25.5 S 16 20 1009.0 - 4.4 - Partly cloudy 10 - - - -
21/07:00am 25.5 S 16 20 1009.0 - 4.4 - Partly cloudy 10 - - - -
21/06:59am 25.5 S 16 20 1009.0 - 4.4 - Partly cloudy 10 - - - -
21/06:46am 25.3 S 14 19 1008.9 - 4.4 - Partly cloudy 9 - - - -
21/06:41am 25.1 S 14 18 1008.8 - 4.4 - Partly cloudy 9 - - - -
21/06:30am 25.2 S 14 18 1008.7 - 4.4 - Partly cloudy 10 - - - -
21/06:09am 25.4 S 11 14 1008.7 - 4.4 - Partly cloudy 10 - - - -
21/06:02am 25.2 S 11 14 1008.7 - 4.4 - Partly cloudy 10 - - - -
21/06:00am 25.2 S 11 14 1008.7 - 4.4 - Partly cloudy 10 - - - -
21/05:52am 25.2 S 12 15 1008.6 - 4.4 - Partly cloudy 10 - - - -
21/05:47am 25.3 S 13 17 1008.6 - 4.4 - Partly cloudy 10 - - - -
21/05:30am 25.2 S 13 17 1008.6 - 4.4 - Partly cloudy 10 - - - -
21/05:13am 25.1 S 10 13 1008.6 - 4.4 - Partly cloudy 10 - - - -
21/05:00am 25.2 SSW 10 14 1008.6 - 4.4 - Cloudy 10 - - - -
21/04:30am 25.2 SSW 8 10 1008.8 - 4.4 - Partly cloudy 10 - - - -
21/04:00am 25.1 S 9 12 1008.9 - 4.4 - Partly cloudy 10 - - - -
21/03:32am 24.8 S 11 13 1008.8 - 4.4 - Partly cloudy 10 - - - -
21/03:30am 24.8 S 11 13 1008.8 - 4.4 - Partly cloudy 10 - - - -
21/03:00am 25.0 S 10 13 1009.1 - 4.4 - Partly cloudy 10 - - - -
21/02:30am 25.2 SSW 10 13 1009.4 - 4.4 - Partly cloudy 10 - - - -
21/02:02am 25.2 SSW 9 13 1009.5 - 4.4 - Partly cloudy 8 - - - -
21/02:01am 25.3 SSW 9 13 1009.5 - 4.4 - Partly cloudy 8 - - - -
21/02:00am 25.4 SW 9 13 1009.4 - 4.4 - Cloudy 8 - - - -
21/01:49am 25.7 SW 7 9 1009.7 - 4.4 - Partly cloudy 6 - - - -
21/01:30am 25.8 S 7 9 1010.0 - 4.4 - Partly cloudy 10 - - - -
21/01:00am 25.5 S 5 6 1010.2 - 4.4 - Partly cloudy 10 - - - -
21/12:30am 26.1 SSE 5 7 1010.6 - 4.4 - Partly cloudy 10 - - - -
21/12:00am 26.2 SE 8 9 1010.4 - 4.4 - Cloudy 10 - - - -
 
Date/Time
WST
Temp
°C
Wind Pressure Rain since
9am
mm
Weather Cloud Vis
km
Sea
Height
m
Swell
Dir  Spd
kts
Gust
kts
hPa Trend Height
m
Period
s
Dir
20/11:30pm 26.2 SE 7 10 1010.2 - 4.4 - Partly cloudy 10 - - - -
20/11:00pm 26.1 SE 7 9 1009.8 - 4.4 - Cloudy 10 - - - -
20/10:30pm 26.2 SE 7 8 1009.8 - 4.4 - Partly cloudy 10 - - - -
20/10:00pm 25.9 ESE 7 11 1009.6 - 4.4 - Partly cloudy 10 - - - -
20/09:30pm 26.2 E 5 7 1009.5 - 4.4 - Cloudy 10 - - - -
20/09:00pm 26.0 ESE 5 7 1009.3 - 4.4 - Cloudy 10 - - - -
20/08:30pm 26.0 ESE 8 11 1008.9 - 4.4 - Partly cloudy 10 - - - -
20/08:00pm 26.4 ESE 10 13 1008.2 - 4.4 - Cloudy 10 - - - -
20/07:30pm 27.1 SSE 6 8 1008.0 - 4.4 - Partly cloudy 10 - - - -
20/07:00pm 27.0 SE 8 10 1007.7 - 4.4 - Cloudy 10 - - - -
20/06:30pm 26.7 ESE 8 11 1007.3 - 4.4 - Partly cloudy 10 - - - -
20/06:00pm 26.3 ESE 11 13 1007.2 - 4.4 - Partly cloudy 10 - - - -
20/05:30pm 27.2 ESE 6 8 1007.3 - 4.4 - Partly cloudy 10 - - - -
20/05:00pm 27.1 E 5 7 1007.2 - 4.4 - Cloudy 10 - - - -
20/04:53pm 26.8 E 4 6 1007.3 - 4.4 - Partly cloudy 10 - - - -
20/04:30pm 26.4 NE 4 8 1007.5 - 4.2 Showers Mostly clear 6 - - - -
20/04:12pm 26.2 NE 7 11 1007.7 - 3.8 Showers Mostly clear 4 - - - -
20/04:00pm 26.6 ENE 11 16 1007.8 - 1.4 Showers Partly cloudy 3 - - - -
20/03:52pm 26.7 NE 12 16 1007.7 - 0.0 Showers Partly cloudy 4 - - - -
20/03:37pm 28.2 NE 9 15 1007.8 - 0.0 Showers Partly cloudy 7 - - - -
20/03:30pm 29.1 ENE 7 11 1007.9 - 0.0 - Mostly clear 10 - - - -
20/03:00pm 29.0 SE 7 10 1008.1 - 0.0 - Partly cloudy 10 - - - -
20/02:30pm 29.9 SE 7 10 1008.4 - 0.0 - Mostly clear 10 - - - -
20/02:00pm 29.2 SE 6 8 1008.4 - 0.0 - Mostly clear 10 - - - -
20/01:30pm 30.2 E 5 7 1008.9 - 0.0 - Partly cloudy 10 - - - -
20/01:00pm 30.2 ENE 4 5 1009.2 - 0.0 - Partly cloudy 10 - - - -
20/12:30pm 29.7 E 4 6 1009.2 - 0.0 - Partly cloudy 10 - - - -
20/12:00pm 30.0 ESE 5 6 1009.3 - 0.0 - Mostly clear 10 - - - -
20/11:30am 29.7 ENE 4 6 1009.4 - 0.0 - Mostly clear 10 - - - -
20/11:00am 29.6 E 5 6 1009.5 - 2.4 - Mostly clear 10 - - - -
20/10:30am 29.3 E 7 8 1009.9 - 2.4 - Mostly clear 10 - - - -
20/10:00am 29.3 ENE 7 8 1009.9 - 2.4 - Partly cloudy 10 - - - -
20/09:30am 28.5 E 7 8 1009.8 - 2.4 - Partly cloudy 10 - - - -
20/09:00am 28.1 E 7 8 1009.5 - 2.4 - Mostly clear 10 - - - -
20/08:30am 27.6 E 5 6 1009.3 - 2.4 - Mostly clear 10 - - - -
20/08:00am 26.3 E 4 6 1009.0 - 2.2 - - 10 - - - -
20/07:30am 25.8 E 6 7 1008.6 - 2.2 - - 10 - - - -
20/07:00am 25.7 E 5 6 1008.4 - 2.2 - - 10 - - - -
20/06:30am 25.7 E 6 8 1008.1 - 2.2 - - 10 - - - -
20/06:00am 25.9 ESE 6 8 1008.1 - 2.2 - Partly cloudy 10 - - - -
20/05:30am 25.7 ESE 6 9 1007.9 - 2.2 - Partly cloudy 10 - - - -
20/05:13am 25.8 ESE 5 7 1007.9 - 2.2 - Partly cloudy 10 - - - -
20/05:01am 25.9 ESE 8 13 1007.9 - 2.2 - Partly cloudy 6 - - - -
20/05:00am 25.9 ESE 9 13 1007.8 - 2.2 - Cloudy 7 - - - -
20/04:32am 26.0 SE 9 12 1008.0 - 2.0 - Partly cloudy 10 - - - -
20/04:30am 26.0 SE 10 12 1008.0 - 2.0 - Partly cloudy 10 - - - -
20/04:11am 25.8 SSE 9 14 1008.0 - 2.0 - Partly cloudy 10 - - - -
20/04:00am 26.0 ESE 8 11 1008.1 - 2.0 - Partly cloudy 10 - - - -
20/03:51am 26.1 E 9 13 1008.1 - 2.0 - Partly cloudy 10 - - - -
20/03:32am 25.9 ESE 12 17 1008.1 - 2.0 - Partly cloudy 3 - - - -
20/03:30am 26.0 ESE 12 17 1008.1 - 2.0 - Partly cloudy 7 - - - -
20/03:20am 26.3 SE 14 17 1008.1 - 1.8 - Partly cloudy 10 - - - -
20/03:19am 26.3 SE 14 17 1008.1 - 1.8 - Partly cloudy 10 - - - -
20/03:07am 26.1 SE 13 17 1008.3 - 1.8 - Partly cloudy 5 - - - -
20/03:01am 25.9 SE 14 17 1008.3 - 1.6 - Partly cloudy 6 - - - -
20/03:00am 25.8 SE 14 17 1008.3 - 1.6 - Partly cloudy 7 - - - -
20/02:40am 26.2 SE 13 17 1008.5 - 1.4 - Partly cloudy 10 - - - -
20/02:30am 26.1 SE 12 17 1008.7 - 1.4 - Partly cloudy 10 - - - -
20/02:25am 25.9 ESE 10 15 1008.8 - 1.4 - Partly cloudy 10 - - - -
20/02:03am 25.7 ESE 11 17 1009.2 - 1.2 - Partly cloudy 5 - - - -
20/02:02am 25.9 ESE 11 17 1009.2 - 1.0 - Partly cloudy 6 - - - -
20/02:00am 26.2 ESE 10 15 1009.1 - 0.4 - Cloudy 10 - - - -

Other Formats:

Comma delimited format used in spreadsheet applications
http://www.bom.gov.au/fwo/IDW60701/IDW60701.96996.axf

JavaScript Object Notation format (JSON) in row-major order
http://www.bom.gov.au/fwo/IDW60701/IDW60701.96996.json